createdAt,value
2023-03-13T00:01:12.161Z,7.46
2023-03-13T00:03:39.287Z,7.57
2023-03-13T00:06:06.732Z,7.63
2023-03-13T00:08:33.850Z,7.73
2023-03-13T00:11:08.438Z,7.61
2023-03-13T00:13:35.810Z,7.59
2023-03-13T00:16:05.126Z,7.53
2023-03-13T00:18:32.455Z,7.45
2023-03-13T00:21:04.249Z,7.59
2023-03-13T00:23:31.378Z,7.44
2023-03-13T00:26:00.250Z,7.42
2023-03-13T00:28:32.788Z,7.63
2023-03-13T00:31:13.456Z,7.59
2023-03-13T00:33:43.282Z,7.69
2023-03-13T00:36:12.869Z,7.73
2023-03-13T00:38:40.639Z,7.53
2023-03-13T00:41:13.840Z,7.66
2023-03-13T00:43:42.549Z,7.51
2023-03-13T00:46:10.048Z,7.71
2023-03-13T00:48:37.382Z,7.73
2023-03-13T00:51:05.224Z,7.90
2023-03-13T00:53:32.583Z,7.86
2023-03-13T00:56:08.445Z,7.68
2023-03-13T00:58:37.864Z,7.92
2023-03-13T01:01:37.549Z,7.85
2023-03-13T01:04:07.628Z,7.76
2023-03-13T01:06:36.830Z,7.99
2023-03-13T01:09:05.642Z,7.95
2023-03-13T01:11:35.632Z,7.84
2023-03-13T01:14:04.963Z,7.90
2023-03-13T01:16:34.231Z,8.00
2023-03-13T01:19:07.427Z,8.09
2023-03-13T01:21:34.821Z,8.01
2023-03-13T01:24:02.003Z,8.07
2023-03-13T01:26:29.360Z,8.08
2023-03-13T01:28:56.870Z,8.10
2023-03-13T01:31:30.446Z,8.14
2023-03-13T01:34:00.710Z,8.32
2023-03-13T01:36:28.963Z,8.16
2023-03-13T01:38:58.534Z,8.15
2023-03-13T01:41:27.671Z,8.28
2023-03-13T01:43:55.674Z,8.22
2023-03-13T01:46:25.447Z,8.11
2023-03-13T01:49:17.338Z,8.14
2023-03-13T01:52:04.584Z,8.24
2023-03-13T01:54:42.594Z,8.42
2023-03-13T01:57:13.620Z,8.38
2023-03-13T01:59:48.498Z,8.16
2023-03-13T02:02:16.031Z,8.26
2023-03-13T02:04:47.601Z,8.34
2023-03-13T02:07:17.898Z,8.31
2023-03-13T02:09:51.135Z,8.38
2023-03-13T02:12:48.317Z,8.45
2023-03-13T02:15:20.638Z,8.51
2023-03-13T02:17:48.792Z,8.59
2023-03-13T02:20:18.395Z,8.67
2023-03-13T02:22:45.416Z,8.70
2023-03-13T02:25:25.890Z,8.49
2023-03-13T02:28:35.150Z,8.58
2023-03-13T02:31:06.862Z,8.52
2023-03-13T02:33:38.829Z,8.44
2023-03-13T02:36:07.133Z,8.38
2023-03-13T02:38:53.853Z,8.60
2023-03-13T02:41:21.817Z,8.68
2023-03-13T02:43:49.322Z,8.51
2023-03-13T02:46:19.470Z,8.29
2023-03-13T02:48:54.042Z,8.60
2023-03-13T02:51:29.621Z,8.77
2023-03-13T02:54:01.348Z,8.76
2023-03-13T02:56:30.792Z,8.68
2023-03-13T02:58:58.141Z,8.64
2023-03-13T03:01:26.708Z,8.78
2023-03-13T03:03:53.900Z,8.82
2023-03-13T03:06:21.124Z,8.57
2023-03-13T03:08:48.841Z,8.60
2023-03-13T03:11:16.086Z,8.63
2023-03-13T03:13:46.646Z,8.57
2023-03-13T03:16:18.657Z,8.55
2023-03-13T03:18:46.119Z,8.55
2023-03-13T03:21:13.207Z,8.74
2023-03-13T03:23:40.353Z,8.67
2023-03-13T03:26:08.895Z,8.67
2023-03-13T03:28:36.085Z,8.58
2023-03-13T03:31:09.638Z,8.60
2023-03-13T03:33:38.086Z,8.60
2023-03-13T03:36:10.877Z,8.68
2023-03-13T03:38:39.854Z,8.78
2023-03-13T03:41:08.762Z,8.88
2023-03-13T03:43:36.309Z,8.95
2023-03-13T03:46:05.986Z,8.77
2023-03-13T03:48:33.324Z,8.67
2023-03-13T03:51:00.745Z,8.75
2023-03-13T03:53:28.982Z,8.78
2023-03-13T03:55:56.355Z,8.42
2023-03-13T03:58:24.177Z,8.10
2023-03-13T04:01:11.275Z,8.28
2023-03-13T04:03:38.912Z,8.10
2023-03-13T04:06:07.187Z,7.92
2023-03-13T04:08:34.274Z,7.90
2023-03-13T04:11:02.020Z,7.95
2023-03-13T04:13:32.148Z,8.14
2023-03-13T04:15:59.789Z,8.23
2023-03-13T04:18:27.167Z,8.07
2023-03-13T04:21:02.613Z,8.05
2023-03-13T04:23:31.092Z,7.96
2023-03-13T04:25:58.245Z,8.05
2023-03-13T04:28:25.381Z,7.97
2023-03-13T04:30:57.214Z,7.77
2023-03-13T04:33:34.343Z,7.90
2023-03-13T04:36:16.816Z,7.82
2023-03-13T04:38:57.977Z,7.80
2023-03-13T04:41:37.603Z,7.86
2023-03-13T04:44:28.260Z,8.00
2023-03-13T04:47:01.617Z,8.13
2023-03-13T04:49:42.013Z,8.20
2023-03-13T04:52:25.577Z,8.12
2023-03-13T04:54:52.659Z,8.12
2023-03-13T04:57:55.270Z,8.20
2023-03-13T05:00:42.851Z,8.22
2023-03-13T05:03:27.539Z,8.28
2023-03-13T05:06:17.629Z,8.12
2023-03-13T05:09:13.640Z,8.03
2023-03-13T05:11:58.362Z,8.06
2023-03-13T05:15:04.441Z,8.05
2023-03-13T05:17:56.294Z,7.99
2023-03-13T05:20:32.986Z,8.21
2023-03-13T05:23:23.468Z,8.34
2023-03-13T05:25:50.647Z,8.29
2023-03-13T05:28:38.006Z,8.45
2023-03-13T05:31:24.072Z,8.44
2023-03-13T05:33:51.256Z,8.42
2023-03-13T05:36:21.479Z,8.45
2023-03-13T05:39:05.450Z,8.54
2023-03-13T05:41:47.665Z,8.79
2023-03-13T05:44:15.029Z,8.94
2023-03-13T05:47:02.406Z,8.84
2023-03-13T05:49:57.197Z,9.06
2023-03-13T05:52:29.908Z,9.23
2023-03-13T05:55:18.094Z,9.16
2023-03-13T05:57:58.975Z,9.48
2023-03-13T06:00:33.468Z,9.66
2023-03-13T06:03:26.321Z,9.51
2023-03-13T06:05:58.974Z,9.71
2023-03-13T06:08:34.878Z,9.60
2023-03-13T06:11:03.598Z,9.77
2023-03-13T06:13:31.749Z,9.94
2023-03-13T06:16:03.774Z,10.08
2023-03-13T06:18:48.413Z,10.27
2023-03-13T06:21:15.585Z,10.34
2023-03-13T06:23:42.826Z,10.47
2023-03-13T06:26:10.126Z,10.60
2023-03-13T06:28:37.274Z,10.50
2023-03-13T06:31:06.714Z,10.73
2023-03-13T06:33:34.534Z,11.01
2023-03-13T06:36:02.154Z,11.55
2023-03-13T06:38:30.241Z,12.19
2023-03-13T06:40:57.428Z,12.65
2023-03-13T06:43:24.553Z,12.62
2023-03-13T06:45:51.664Z,12.54
2023-03-13T06:48:18.876Z,12.07
2023-03-13T06:50:46.111Z,11.29
2023-03-13T06:53:18.027Z,11.24
2023-03-13T06:55:45.900Z,10.97
2023-03-13T06:58:25.427Z,10.71
2023-03-13T07:00:59.318Z,10.46
2023-03-13T07:03:26.628Z,10.64
2023-03-13T07:05:57.709Z,10.88
2023-03-13T07:08:25.783Z,11.01
2023-03-13T07:10:53.914Z,11.16
2023-03-13T07:13:22.295Z,11.24
2023-03-13T07:15:49.837Z,11.32
2023-03-13T07:18:17.181Z,11.30
2023-03-13T07:20:44.535Z,11.61
2023-03-13T07:23:11.689Z,11.40
2023-03-13T07:25:38.748Z,11.53
2023-03-13T07:28:05.901Z,11.77
2023-03-13T07:30:32.955Z,11.90
2023-03-13T07:33:00.150Z,11.97
2023-03-13T07:35:28.572Z,12.18
2023-03-13T07:37:55.762Z,12.31
2023-03-13T07:40:23.108Z,12.73
2023-03-13T07:42:50.300Z,14.54
2023-03-13T07:45:17.441Z,16.65
2023-03-13T07:47:44.528Z,18.34
2023-03-13T07:50:12.179Z,19.05
2023-03-13T07:52:39.793Z,18.88
2023-03-13T07:55:07.101Z,19.25
2023-03-13T07:57:34.419Z,20.14
2023-03-13T08:00:01.578Z,19.80
2023-03-13T08:02:39.126Z,19.62
2023-03-13T08:05:06.615Z,19.63
2023-03-13T08:07:33.703Z,18.80
2023-03-13T08:10:00.864Z,18.74
2023-03-13T08:12:28.158Z,18.87
2023-03-13T08:14:55.379Z,19.29
2023-03-13T08:17:22.772Z,19.29
2023-03-13T08:19:49.888Z,17.82
2023-03-13T08:22:17.107Z,17.03
2023-03-13T08:24:44.172Z,16.45
2023-03-13T08:27:11.358Z,15.45
2023-03-13T08:29:38.566Z,15.24
2023-03-13T08:32:06.065Z,15.95
2023-03-13T08:34:35.256Z,16.04
2023-03-13T08:37:02.284Z,16.55
2023-03-13T08:39:29.463Z,16.60
2023-03-13T08:41:56.595Z,16.66
2023-03-13T08:44:23.923Z,16.95
2023-03-13T08:46:51.078Z,17.79
2023-03-13T08:49:18.459Z,17.06
2023-03-13T08:51:45.531Z,16.50
2023-03-13T08:54:12.733Z,16.48
2023-03-13T08:56:41.460Z,16.10
2023-03-13T08:59:08.788Z,15.30
2023-03-13T09:01:36.547Z,15.14
2023-03-13T09:04:05.191Z,15.36
2023-03-13T09:06:37.196Z,14.72
2023-03-13T09:09:05.972Z,14.20
2023-03-13T09:11:33.365Z,13.74
2023-03-13T09:14:00.502Z,14.20
2023-03-13T09:16:30.454Z,15.20
2023-03-13T09:18:58.188Z,15.26
2023-03-13T09:21:31.430Z,15.62
2023-03-13T09:23:59.070Z,14.92
2023-03-13T09:26:27.594Z,14.66
2023-03-13T09:28:55.495Z,14.46
2023-03-13T09:31:33.293Z,14.56
2023-03-13T09:34:00.665Z,15.68
2023-03-13T09:36:28.656Z,16.12
2023-03-13T09:38:57.931Z,15.70
2023-03-13T09:41:45.103Z,15.37
2023-03-13T09:44:20.653Z,15.19
2023-03-13T09:46:50.616Z,15.72
2023-03-13T09:49:29.876Z,16.33
2023-03-13T09:52:07.885Z,15.73
2023-03-13T09:55:05.715Z,15.63
2023-03-13T09:57:40.217Z,16.04
2023-03-13T10:00:19.915Z,16.49
2023-03-13T10:02:56.296Z,17.26
2023-03-13T10:05:26.659Z,16.65
2023-03-13T10:08:02.080Z,16.08
2023-03-13T10:10:43.098Z,16.58
2023-03-13T10:13:24.902Z,17.01
2023-03-13T10:16:03.530Z,17.30
2023-03-13T10:18:32.848Z,16.87
2023-03-13T10:21:03.241Z,17.02
2023-03-13T10:23:36.341Z,16.53
2023-03-13T10:26:03.419Z,17.01
2023-03-13T10:28:30.394Z,16.62
2023-03-13T10:31:21.792Z,16.30
2023-03-13T10:33:49.089Z,15.77
2023-03-13T10:36:16.237Z,15.44
2023-03-13T10:38:49.754Z,15.43
2023-03-13T10:41:26.793Z,15.77
2023-03-13T10:43:58.880Z,15.68
2023-03-13T10:46:32.459Z,15.00
2023-03-13T10:49:13.317Z,15.53
2023-03-13T10:51:44.547Z,15.65
2023-03-13T10:54:32.195Z,15.22
2023-03-13T10:57:18.146Z,15.11
2023-03-13T10:59:47.937Z,15.21
2023-03-13T11:02:44.687Z,15.01
2023-03-13T11:05:24.324Z,14.77
2023-03-13T11:07:52.801Z,14.83
2023-03-13T11:10:23.979Z,15.34
2023-03-13T11:12:56.151Z,15.38
2023-03-13T11:15:26.390Z,15.57
2023-03-13T11:18:06.425Z,15.32
2023-03-13T11:20:36.724Z,15.44
2023-03-13T11:23:37.607Z,15.74
2023-03-13T11:26:27.916Z,15.44
2023-03-13T11:29:06.583Z,15.98
2023-03-13T11:31:36.811Z,16.26
2023-03-13T11:34:29.933Z,16.32
2023-03-13T11:37:12.112Z,16.59
2023-03-13T11:39:51.409Z,16.40
2023-03-13T11:42:37.168Z,15.75
2023-03-13T11:45:16.339Z,16.19
2023-03-13T11:48:24.322Z,15.95
2023-03-13T11:51:03.456Z,15.54
2023-03-13T11:53:45.613Z,14.92
2023-03-13T11:56:23.095Z,14.33
2023-03-13T11:58:50.158Z,14.53
2023-03-13T12:01:24.570Z,14.24
2023-03-13T12:03:54.408Z,14.01
2023-03-13T12:06:32.901Z,14.39
2023-03-13T12:09:28.128Z,14.22
2023-03-13T12:12:03.631Z,14.27
2023-03-13T12:14:35.009Z,14.00
2023-03-13T12:17:11.052Z,14.19
2023-03-13T12:19:49.004Z,14.31
2023-03-13T12:22:23.215Z,14.10
2023-03-13T12:24:56.748Z,13.76
2023-03-13T12:27:55.923Z,13.22
2023-03-13T12:30:36.395Z,13.00
2023-03-13T12:33:14.956Z,12.94
2023-03-13T12:35:45.232Z,12.88
2023-03-13T12:38:25.864Z,12.68
2023-03-13T12:41:17.469Z,12.77
2023-03-13T12:44:00.592Z,12.20
2023-03-13T12:46:44.830Z,11.88
2023-03-13T12:49:29.569Z,11.93
2023-03-13T12:52:24.084Z,11.82
2023-03-13T12:55:19.234Z,11.54
2023-03-13T12:58:10.768Z,11.29
2023-03-13T13:00:40.999Z,11.62
2023-03-13T13:03:13.992Z,11.46
2023-03-13T13:05:57.744Z,11.21
2023-03-13T13:08:26.065Z,11.09
2023-03-13T13:10:53.175Z,11.13
2023-03-13T13:13:32.803Z,11.18
2023-03-13T13:16:08.017Z,11.27
2023-03-13T13:18:35.310Z,11.51
2023-03-13T13:21:02.372Z,11.76
2023-03-13T13:23:38.601Z,11.78
2023-03-13T13:26:30.498Z,12.40
2023-03-13T13:28:59.627Z,12.48
2023-03-13T13:31:51.327Z,12.75
2023-03-13T13:34:31.430Z,12.53
2023-03-13T13:37:00.391Z,12.53
2023-03-13T13:39:50.054Z,12.53
2023-03-13T13:42:32.362Z,12.56
2023-03-13T13:45:25.658Z,12.55
2023-03-13T13:48:24.373Z,12.58
2023-03-13T13:51:12.504Z,12.81
2023-03-13T13:54:02.599Z,12.84
2023-03-13T13:56:29.812Z,13.11
2023-03-13T13:59:21.742Z,13.28
2023-03-13T14:01:50.577Z,13.17
2023-03-13T14:04:30.989Z,13.17
2023-03-13T14:07:01.921Z,12.92
2023-03-13T14:10:06.458Z,12.86
2023-03-13T14:12:35.698Z,12.95
2023-03-13T14:15:29.832Z,12.63
2023-03-13T14:18:01.298Z,12.70
2023-03-13T14:20:38.969Z,12.76
2023-03-13T14:23:12.003Z,12.71
2023-03-13T14:25:48.142Z,12.76
2023-03-13T14:28:23.752Z,12.63
2023-03-13T14:30:53.199Z,12.40
2023-03-13T14:33:20.859Z,12.43
2023-03-13T14:35:48.273Z,12.46
2023-03-13T14:38:26.420Z,12.35
2023-03-13T14:40:55.638Z,12.26
2023-03-13T14:43:48.801Z,12.33
2023-03-13T14:46:31.746Z,12.26
2023-03-13T14:49:21.006Z,12.23
2023-03-13T14:51:58.375Z,12.11
2023-03-13T14:54:36.247Z,12.13
2023-03-13T14:57:09.384Z,12.35
2023-03-13T14:59:36.664Z,12.30
2023-03-13T15:02:13.598Z,12.59
2023-03-13T15:05:05.049Z,12.97
2023-03-13T15:07:47.443Z,12.70
2023-03-13T15:10:36.979Z,12.89
2023-03-13T15:13:23.029Z,12.81
2023-03-13T15:15:51.133Z,12.85
2023-03-13T15:18:19.815Z,12.65
2023-03-13T15:20:58.468Z,12.61
2023-03-13T15:23:26.083Z,12.65
2023-03-13T15:25:53.458Z,12.54
2023-03-13T15:28:22.781Z,12.67
2023-03-13T15:30:51.528Z,12.80
2023-03-13T15:33:23.191Z,13.07
2023-03-13T15:35:50.621Z,12.94
2023-03-13T15:38:20.159Z,12.74
2023-03-13T15:40:47.493Z,12.73
2023-03-13T15:43:15.071Z,12.85
2023-03-13T15:45:44.079Z,12.97
2023-03-13T15:48:21.777Z,12.85
2023-03-13T15:50:53.529Z,13.19
2023-03-13T15:53:24.204Z,13.23
2023-03-13T15:55:52.787Z,12.88
2023-03-13T15:58:19.897Z,12.91
2023-03-13T16:00:48.544Z,13.17
2023-03-13T16:03:17.460Z,13.17
2023-03-13T16:05:45.018Z,13.00
2023-03-13T16:08:29.185Z,13.24
2023-03-13T16:11:01.275Z,13.22
2023-03-13T16:13:28.363Z,13.15
2023-03-13T16:15:55.484Z,13.32
2023-03-13T16:18:23.989Z,13.24
2023-03-13T16:20:52.328Z,13.11
2023-03-13T16:23:19.361Z,13.33
2023-03-13T16:25:47.486Z,13.75
2023-03-13T16:28:15.194Z,13.47
2023-03-13T16:30:47.526Z,13.67
2023-03-13T16:33:14.788Z,13.66
2023-03-13T16:35:41.988Z,13.76
2023-03-13T16:38:12.313Z,13.53
2023-03-13T16:40:39.447Z,13.75
2023-03-13T16:43:06.564Z,13.80
2023-03-13T16:45:33.731Z,14.00
2023-03-13T16:48:00.772Z,13.97
2023-03-13T16:50:36.775Z,13.97
2023-03-13T16:53:04.635Z,13.69
2023-03-13T16:55:36.468Z,13.94
2023-03-13T16:58:04.648Z,13.65
2023-03-13T17:00:32.354Z,13.73
2023-03-13T17:02:59.834Z,13.50
2023-03-13T17:05:27.369Z,13.67
2023-03-13T17:07:54.613Z,13.52
2023-03-13T17:10:23.136Z,13.69
2023-03-13T17:12:50.585Z,13.64
2023-03-13T17:15:18.824Z,13.79
2023-03-13T17:17:51.442Z,13.64
2023-03-13T17:20:22.228Z,13.47
2023-03-13T17:22:49.501Z,13.51
2023-03-13T17:25:16.686Z,13.40
2023-03-13T17:27:43.940Z,13.42
2023-03-13T17:30:27.534Z,13.23
2023-03-13T17:32:55.118Z,13.38
2023-03-13T17:35:23.352Z,13.04
2023-03-13T17:37:50.677Z,13.04
2023-03-13T17:40:19.668Z,13.04
2023-03-13T17:42:46.817Z,13.06
2023-03-13T17:45:14.310Z,13.02
2023-03-13T17:47:41.744Z,12.86
2023-03-13T17:50:17.683Z,12.98
2023-03-13T17:52:44.992Z,12.95
2023-03-13T17:55:12.541Z,13.10
2023-03-13T17:57:39.849Z,13.07
2023-03-13T18:00:29.341Z,13.07
2023-03-13T18:02:56.778Z,12.98
2023-03-13T18:05:23.895Z,13.00
2023-03-13T18:07:51.758Z,12.99
2023-03-13T18:10:24.394Z,13.09
2023-03-13T18:12:52.339Z,12.97
2023-03-13T18:15:25.754Z,13.01
2023-03-13T18:17:53.431Z,13.19
2023-03-13T18:20:28.086Z,13.17
2023-03-13T18:22:59.576Z,13.52
2023-03-13T18:25:29.983Z,13.46
2023-03-13T18:27:57.120Z,13.40
2023-03-13T18:30:25.520Z,13.33
2023-03-13T18:32:52.710Z,13.12
2023-03-13T18:35:20.038Z,13.33
2023-03-13T18:37:48.078Z,13.10
2023-03-13T18:40:20.868Z,13.24
2023-03-13T18:42:48.329Z,13.26
2023-03-13T18:45:17.762Z,13.35
2023-03-13T18:47:45.146Z,13.32
2023-03-13T18:50:19.509Z,13.51
2023-03-13T18:52:46.980Z,13.50
2023-03-13T18:55:14.160Z,13.62
2023-03-13T18:57:41.526Z,13.51
2023-03-13T19:00:17.561Z,13.34
2023-03-13T19:02:45.784Z,13.51
2023-03-13T19:05:13.537Z,13.43
2023-03-13T19:07:40.804Z,13.20
2023-03-13T19:10:19.328Z,13.28
2023-03-13T19:12:47.351Z,13.53
2023-03-13T19:15:15.156Z,13.55
2023-03-13T19:17:42.688Z,13.27
2023-03-13T19:20:18.912Z,13.25
2023-03-13T19:22:46.641Z,13.20
2023-03-13T19:25:17.195Z,13.22
2023-03-13T19:27:45.057Z,13.12
2023-03-13T19:30:23.491Z,13.16
2023-03-13T19:32:51.463Z,13.10
2023-03-13T19:35:21.079Z,13.14
2023-03-13T19:37:48.715Z,12.97
2023-03-13T19:40:25.725Z,13.10
2023-03-13T19:42:53.271Z,13.23
2023-03-13T19:45:22.359Z,13.28
2023-03-13T19:47:50.017Z,13.35
2023-03-13T19:50:23.289Z,13.22
2023-03-13T19:52:51.170Z,13.16
2023-03-13T19:55:19.014Z,12.94
2023-03-13T19:57:46.607Z,12.99
2023-03-13T20:00:25.406Z,13.19
2023-03-13T20:02:55.101Z,13.13
2023-03-13T20:05:23.725Z,12.96
2023-03-13T20:07:53.392Z,13.10
2023-03-13T20:10:21.725Z,12.89
2023-03-13T20:12:48.866Z,12.84
2023-03-13T20:15:16.421Z,13.15
2023-03-13T20:17:43.545Z,13.21
2023-03-13T20:20:11.267Z,13.06
2023-03-13T20:22:38.475Z,13.09
2023-03-13T20:25:05.982Z,13.05
2023-03-13T20:27:33.121Z,12.85
2023-03-13T20:30:00.950Z,13.02
2023-03-13T20:32:28.368Z,13.19
2023-03-13T20:34:55.635Z,12.99
2023-03-13T20:37:22.849Z,13.02
2023-03-13T20:39:50.336Z,13.28
2023-03-13T20:42:17.573Z,13.22
2023-03-13T20:44:45.830Z,13.12
2023-03-13T20:47:13.292Z,13.01
2023-03-13T20:49:41.549Z,13.06
2023-03-13T20:52:08.781Z,12.99
2023-03-13T20:54:36.286Z,13.31
2023-03-13T20:57:04.432Z,13.51
2023-03-13T20:59:32.012Z,13.43
2023-03-13T21:01:59.166Z,13.43
2023-03-13T21:04:26.476Z,13.54
2023-03-13T21:06:54.231Z,13.83
2023-03-13T21:09:21.640Z,13.83
2023-03-13T21:11:48.763Z,13.81
2023-03-13T21:14:15.940Z,13.87
2023-03-13T21:16:43.066Z,13.67
2023-03-13T21:19:10.138Z,13.88
2023-03-13T21:21:37.379Z,13.45
2023-03-13T21:24:04.895Z,13.38
2023-03-13T21:26:32.486Z,13.57
2023-03-13T21:28:59.737Z,13.45
2023-03-13T21:31:26.968Z,13.49
2023-03-13T21:33:54.049Z,13.60
2023-03-13T21:36:22.111Z,13.57
2023-03-13T21:38:50.524Z,13.46
2023-03-13T21:41:20.633Z,13.46
2023-03-13T21:43:47.995Z,13.58
2023-03-13T21:46:17.354Z,13.41
2023-03-13T21:51:17.771Z,13.27
2023-03-13T21:53:44.963Z,13.30
2023-03-13T21:56:16.672Z,13.38
2023-03-13T21:58:45.624Z,13.31
2023-03-13T22:01:14.096Z,13.36
2023-03-13T22:03:41.738Z,13.52
2023-03-13T22:06:17.138Z,13.52
2023-03-13T22:08:44.595Z,13.43
2023-03-13T22:11:11.716Z,13.31
2023-03-13T22:13:39.106Z,13.41
2023-03-13T22:16:06.757Z,13.49
2023-03-13T22:18:33.929Z,13.62
2023-03-13T22:21:00.974Z,13.57
2023-03-13T22:23:28.117Z,13.73
2023-03-13T22:25:57.356Z,13.70
2023-03-13T22:28:25.071Z,13.67
2023-03-13T22:30:52.565Z,13.67
2023-03-13T22:33:19.731Z,13.72
2023-03-13T22:35:52.319Z,13.69
2023-03-13T22:38:20.591Z,13.59
2023-03-13T22:40:48.672Z,13.65
2023-03-13T22:43:15.734Z,13.44
2023-03-13T22:45:42.994Z,13.20
2023-03-13T22:48:10.067Z,13.02
2023-03-13T22:50:37.141Z,13.20
2023-03-13T22:53:04.249Z,13.02
2023-03-13T22:55:33.297Z,12.87
2023-03-13T22:58:00.658Z,12.75
2023-03-13T23:00:28.054Z,12.73
2023-03-13T23:02:55.226Z,12.57
2023-03-13T23:05:22.399Z,12.39
2023-03-13T23:07:50.963Z,12.40
2023-03-13T23:10:18.830Z,12.27
2023-03-13T23:12:45.997Z,12.31
2023-03-13T23:15:13.211Z,12.28
2023-03-13T23:17:40.417Z,12.29
2023-03-13T23:20:13.017Z,12.49
2023-03-13T23:22:41.989Z,12.32
2023-03-13T23:25:10.368Z,12.23
2023-03-13T23:27:37.546Z,12.31
2023-03-13T23:30:06.300Z,12.29
2023-03-13T23:32:38.549Z,12.56
2023-03-13T23:35:07.003Z,12.45
2023-03-13T23:37:34.583Z,12.46
2023-03-13T23:40:02.719Z,12.21
2023-03-13T23:42:30.707Z,12.10
2023-03-13T23:44:57.979Z,12.06
2023-03-13T23:47:25.081Z,12.25
2023-03-13T23:49:52.372Z,12.44
2023-03-13T23:52:19.446Z,12.27
2023-03-13T23:54:46.688Z,12.55
2023-03-13T23:57:13.856Z,12.38
2023-03-13T23:59:41.102Z,12.09
